sensor_id;sensor_type;location;lat;lon;timestamp;temperature;humidity
13665;DHT22;6905;50.770;6.730;2022-10-23T00:04:12;12.40;99.90
13665;DHT22;6905;50.770;6.730;2022-10-23T00:06:41;12.40;99.90
13665;DHT22;6905;50.770;6.730;2022-10-23T00:09:10;12.30;99.90
13665;DHT22;6905;50.770;6.730;2022-10-23T00:11:38;12.30;99.90
13665;DHT22;6905;50.770;6.730;2022-10-23T00:14:06;12.20;99.90
13665;DHT22;6905;50.770;6.730;2022-10-23T00:16:33;12.20;99.90
13665;DHT22;6905;50.770;6.730;2022-10-23T00:19:00;12.20;99.90
13665;DHT22;6905;50.770;6.730;2022-10-23T00:21:28;12.20;99.90
13665;DHT22;6905;50.770;6.730;2022-10-23T00:23:56;12.20;99.90
13665;DHT22;6905;50.770;6.730;2022-10-23T00:26:24;12.20;99.90
13665;DHT22;6905;50.770;6.730;2022-10-23T00:28:51;12.10;99.90
13665;DHT22;6905;50.770;6.730;2022-10-23T00:31:18;12.10;99.90
13665;DHT22;6905;50.770;6.730;2022-10-23T00:33:45;12.10;99.90
13665;DHT22;6905;50.770;6.730;2022-10-23T00:36:14;12.10;99.90
13665;DHT22;6905;50.770;6.730;2022-10-23T00:38:41;12.00;99.90
13665;DHT22;6905;50.770;6.730;2022-10-23T00:41:12;12.00;99.90
13665;DHT22;6905;50.770;6.730;2022-10-23T00:49:46;11.90;99.90
13665;DHT22;6905;50.770;6.730;2022-10-23T00:52:13;11.90;99.90
13665;DHT22;6905;50.770;6.730;2022-10-23T00:54:41;11.90;99.90
13665;DHT22;6905;50.770;6.730;2022-10-23T00:57:12;11.90;99.90
13665;DHT22;6905;50.770;6.730;2022-10-23T00:59:40;11.80;99.90
13665;DHT22;6905;50.770;6.730;2022-10-23T01:02:07;11.80;99.90
13665;DHT22;6905;50.770;6.730;2022-10-23T01:04:35;11.80;99.90
13665;DHT22;6905;50.770;6.730;2022-10-23T01:07:04;11.80;99.90
13665;DHT22;6905;50.770;6.730;2022-10-23T01:09:36;11.70;99.90
13665;DHT22;6905;50.770;6.730;2022-10-23T01:12:07;11.70;99.90
13665;DHT22;6905;50.770;6.730;2022-10-23T01:14:42;11.70;99.90
13665;DHT22;6905;50.770;6.730;2022-10-23T01:17:15;11.60;99.90
13665;DHT22;6905;50.770;6.730;2022-10-23T01:19:48;11.70;99.90
13665;DHT22;6905;50.770;6.730;2022-10-23T01:22:24;11.60;99.90
13665;DHT22;6905;50.770;6.730;2022-10-23T01:24:55;11.60;99.90
13665;DHT22;6905;50.770;6.730;2022-10-23T01:27:26;11.60;99.90
13665;DHT22;6905;50.770;6.730;2022-10-23T01:29:57;11.60;99.90
13665;DHT22;6905;50.770;6.730;2022-10-23T01:32:33;11.60;99.90
13665;DHT22;6905;50.770;6.730;2022-10-23T01:35:04;11.60;99.90
13665;DHT22;6905;50.770;6.730;2022-10-23T01:37:38;11.60;99.90
13665;DHT22;6905;50.770;6.730;2022-10-23T01:40:08;11.70;99.90
13665;DHT22;6905;50.770;6.730;2022-10-23T01:42:38;11.70;99.90
13665;DHT22;6905;50.770;6.730;2022-10-23T01:45:07;11.70;99.90
13665;DHT22;6905;50.770;6.730;2022-10-23T01:47:37;11.70;99.90
13665;DHT22;6905;50.770;6.730;2022-10-23T01:50:05;11.80;99.90
13665;DHT22;6905;50.770;6.730;2022-10-23T01:52:33;11.80;99.90
13665;DHT22;6905;50.770;6.730;2022-10-23T01:55:01;11.90;99.90
13665;DHT22;6905;50.770;6.730;2022-10-23T01:57:30;11.90;99.90
13665;DHT22;6905;50.770;6.730;2022-10-23T02:00:00;11.90;99.90
13665;DHT22;6905;50.770;6.730;2022-10-23T02:02:28;11.90;99.90
13665;DHT22;6905;50.770;6.730;2022-10-23T02:04:58;11.90;99.90
13665;DHT22;6905;50.770;6.730;2022-10-23T02:07:28;11.90;99.90
13665;DHT22;6905;50.770;6.730;2022-10-23T02:09:56;11.90;99.90
13665;DHT22;6905;50.770;6.730;2022-10-23T02:24:44;11.90;99.90
13665;DHT22;6905;50.770;6.730;2022-10-23T02:27:14;11.90;99.90
13665;DHT22;6905;50.770;6.730;2022-10-23T02:29:43;12.00;99.90
13665;DHT22;6905;50.770;6.730;2022-10-23T02:35:15;12.20;99.90
13665;DHT22;6905;50.770;6.730;2022-10-23T02:37:50;12.20;99.90
13665;DHT22;6905;50.770;6.730;2022-10-23T02:40:25;12.30;99.90
13665;DHT22;6905;50.770;6.730;2022-10-23T02:42:56;12.30;99.90
13665;DHT22;6905;50.770;6.730;2022-10-23T02:45:25;12.40;99.90
13665;DHT22;6905;50.770;6.730;2022-10-23T02:47:55;12.40;99.90
13665;DHT22;6905;50.770;6.730;2022-10-23T02:50:27;12.50;99.90
13665;DHT22;6905;50.770;6.730;2022-10-23T02:52:57;12.50;99.90
13665;DHT22;6905;50.770;6.730;2022-10-23T02:55:30;12.50;99.90
13665;DHT22;6905;50.770;6.730;2022-10-23T02:58:00;12.50;99.90
13665;DHT22;6905;50.770;6.730;2022-10-23T03:00:30;12.50;99.90
13665;DHT22;6905;50.770;6.730;2022-10-23T03:03:00;12.50;99.90
13665;DHT22;6905;50.770;6.730;2022-10-23T03:05:29;12.50;99.90
13665;DHT22;6905;50.770;6.730;2022-10-23T03:07:57;12.50;99.90
13665;DHT22;6905;50.770;6.730;2022-10-23T03:10:24;12.50;99.90
13665;DHT22;6905;50.770;6.730;2022-10-23T03:12:53;12.50;99.90
13665;DHT22;6905;50.770;6.730;2022-10-23T03:15:20;12.50;99.90
13665;DHT22;6905;50.770;6.730;2022-10-23T03:17:49;12.50;99.90
13665;DHT22;6905;50.770;6.730;2022-10-23T03:20:16;12.60;99.90
13665;DHT22;6905;50.770;6.730;2022-10-23T03:22:43;12.50;99.90
13665;DHT22;6905;50.770;6.730;2022-10-23T03:25:10;12.50;99.90
13665;DHT22;6905;50.770;6.730;2022-10-23T03:27:37;12.50;99.90
13665;DHT22;6905;50.770;6.730;2022-10-23T03:30:07;12.50;99.90
13665;DHT22;6905;50.770;6.730;2022-10-23T03:32:34;12.50;99.90
13665;DHT22;6905;50.770;6.730;2022-10-23T03:35:02;12.50;99.90
13665;DHT22;6905;50.770;6.730;2022-10-23T03:37:30;12.60;99.90
13665;DHT22;6905;50.770;6.730;2022-10-23T03:39:57;12.60;99.90
13665;DHT22;6905;50.770;6.730;2022-10-23T03:42:25;12.60;99.90
13665;DHT22;6905;50.770;6.730;2022-10-23T03:44:52;12.60;99.90
13665;DHT22;6905;50.770;6.730;2022-10-23T03:47:22;12.60;99.90
13665;DHT22;6905;50.770;6.730;2022-10-23T03:49:50;12.50;99.90
13665;DHT22;6905;50.770;6.730;2022-10-23T03:52:17;12.50;99.90
13665;DHT22;6905;50.770;6.730;2022-10-23T03:54:45;12.60;99.90
13665;DHT22;6905;50.770;6.730;2022-10-23T03:57:13;12.50;99.90
13665;DHT22;6905;50.770;6.730;2022-10-23T03:59:41;12.50;99.90
13665;DHT22;6905;50.770;6.730;2022-10-23T04:02:09;12.50;99.90
13665;DHT22;6905;50.770;6.730;2022-10-23T04:04:39;12.50;99.90
13665;DHT22;6905;50.770;6.730;2022-10-23T04:07:06;12.50;99.90
13665;DHT22;6905;50.770;6.730;2022-10-23T04:09:33;12.50;99.90
13665;DHT22;6905;50.770;6.730;2022-10-23T04:12:02;12.50;99.90
13665;DHT22;6905;50.770;6.730;2022-10-23T04:14:30;12.50;99.90
13665;DHT22;6905;50.770;6.730;2022-10-23T04:16:57;12.50;99.90
13665;DHT22;6905;50.770;6.730;2022-10-23T04:19:25;12.40;99.90
13665;DHT22;6905;50.770;6.730;2022-10-23T04:21:54;12.40;99.90
13665;DHT22;6905;50.770;6.730;2022-10-23T04:24:21;12.40;99.90
13665;DHT22;6905;50.770;6.730;2022-10-23T04:26:49;12.40;99.90
13665;DHT22;6905;50.770;6.730;2022-10-23T04:29:16;12.30;99.90
13665;DHT22;6905;50.770;6.730;2022-10-23T04:31:46;12.30;99.90
13665;DHT22;6905;50.770;6.730;2022-10-23T04:34:13;12.30;99.90
13665;DHT22;6905;50.770;6.730;2022-10-23T04:36:40;12.30;99.90
13665;DHT22;6905;50.770;6.730;2022-10-23T04:39:09;12.20;99.90
13665;DHT22;6905;50.770;6.730;2022-10-23T04:41:37;12.20;99.90
13665;DHT22;6905;50.770;6.730;2022-10-23T04:44:04;12.20;99.90
13665;DHT22;6905;50.770;6.730;2022-10-23T04:46:31;12.20;99.90
13665;DHT22;6905;50.770;6.730;2022-10-23T04:48:57;12.20;99.90
13665;DHT22;6905;50.770;6.730;2022-10-23T04:51:24;12.20;99.90
13665;DHT22;6905;50.770;6.730;2022-10-23T04:53:51;12.20;99.90
13665;DHT22;6905;50.770;6.730;2022-10-23T04:56:19;12.20;99.90
13665;DHT22;6905;50.770;6.730;2022-10-23T04:58:45;12.10;99.90
13665;DHT22;6905;50.770;6.730;2022-10-23T05:01:12;12.10;99.90
13665;DHT22;6905;50.770;6.730;2022-10-23T05:03:39;12.20;99.90
13665;DHT22;6905;50.770;6.730;2022-10-23T05:06:06;12.20;99.90
13665;DHT22;6905;50.770;6.730;2022-10-23T05:08:33;12.10;99.90
13665;DHT22;6905;50.770;6.730;2022-10-23T05:11:00;12.10;99.90
13665;DHT22;6905;50.770;6.730;2022-10-23T05:13:28;12.10;99.90
13665;DHT22;6905;50.770;6.730;2022-10-23T05:15:56;12.10;99.90
13665;DHT22;6905;50.770;6.730;2022-10-23T05:18:24;12.10;99.90
13665;DHT22;6905;50.770;6.730;2022-10-23T05:20:53;12.10;99.90
13665;DHT22;6905;50.770;6.730;2022-10-23T05:23:21;12.10;99.90
13665;DHT22;6905;50.770;6.730;2022-10-23T05:25:50;12.10;99.90
13665;DHT22;6905;50.770;6.730;2022-10-23T05:28:17;12.00;99.90
13665;DHT22;6905;50.770;6.730;2022-10-23T05:30:46;12.00;99.90
13665;DHT22;6905;50.770;6.730;2022-10-23T05:33:13;12.00;99.90
13665;DHT22;6905;50.770;6.730;2022-10-23T05:35:40;12.00;99.90
13665;DHT22;6905;50.770;6.730;2022-10-23T05:38:07;12.00;99.90
13665;DHT22;6905;50.770;6.730;2022-10-23T05:43:35;12.00;99.90
13665;DHT22;6905;50.770;6.730;2022-10-23T05:46:04;11.90;99.90
13665;DHT22;6905;50.770;6.730;2022-10-23T05:48:33;11.90;99.90
13665;DHT22;6905;50.770;6.730;2022-10-23T05:51:03;11.90;99.90
13665;DHT22;6905;50.770;6.730;2022-10-23T05:53:30;11.80;99.90
13665;DHT22;6905;50.770;6.730;2022-10-23T05:56:02;11.80;99.90
13665;DHT22;6905;50.770;6.730;2022-10-23T05:58:29;11.80;99.90
13665;DHT22;6905;50.770;6.730;2022-10-23T06:00:57;11.80;99.90
13665;DHT22;6905;50.770;6.730;2022-10-23T06:03:25;11.80;99.90
13665;DHT22;6905;50.770;6.730;2022-10-23T06:05:52;11.80;99.90
13665;DHT22;6905;50.770;6.730;2022-10-23T06:08:25;11.80;99.90
13665;DHT22;6905;50.770;6.730;2022-10-23T06:11:05;11.80;99.90
13665;DHT22;6905;50.770;6.730;2022-10-23T06:13:54;11.80;99.90
13665;DHT22;6905;50.770;6.730;2022-10-23T06:16:22;11.90;99.90
13665;DHT22;6905;50.770;6.730;2022-10-23T06:18:52;11.90;99.90
13665;DHT22;6905;50.770;6.730;2022-10-23T06:21:19;11.90;99.90
13665;DHT22;6905;50.770;6.730;2022-10-23T06:23:47;11.90;99.90
13665;DHT22;6905;50.770;6.730;2022-10-23T06:26:17;11.90;99.90
13665;DHT22;6905;50.770;6.730;2022-10-23T06:31:49;12.00;99.90
13665;DHT22;6905;50.770;6.730;2022-10-23T06:34:19;12.00;99.90
13665;DHT22;6905;50.770;6.730;2022-10-23T06:36:46;12.10;99.90
13665;DHT22;6905;50.770;6.730;2022-10-23T06:39:14;12.10;99.90
13665;DHT22;6905;50.770;6.730;2022-10-23T06:41:41;12.10;99.90
13665;DHT22;6905;50.770;6.730;2022-10-23T06:44:09;12.10;99.90
13665;DHT22;6905;50.770;6.730;2022-10-23T06:46:36;12.20;99.90
13665;DHT22;6905;50.770;6.730;2022-10-23T06:49:04;12.20;99.90
13665;DHT22;6905;50.770;6.730;2022-10-23T06:51:34;12.20;99.90
13665;DHT22;6905;50.770;6.730;2022-10-23T06:54:01;12.20;99.90
13665;DHT22;6905;50.770;6.730;2022-10-23T06:56:28;12.30;99.90
13665;DHT22;6905;50.770;6.730;2022-10-23T06:58:55;12.20;99.90
13665;DHT22;6905;50.770;6.730;2022-10-23T07:01:23;12.30;99.90
13665;DHT22;6905;50.770;6.730;2022-10-23T07:03:51;12.30;99.90
13665;DHT22;6905;50.770;6.730;2022-10-23T07:06:18;12.40;99.90
13665;DHT22;6905;50.770;6.730;2022-10-23T07:08:49;12.40;99.90
13665;DHT22;6905;50.770;6.730;2022-10-23T07:11:17;12.40;99.90
13665;DHT22;6905;50.770;6.730;2022-10-23T07:13:44;12.40;99.90
13665;DHT22;6905;50.770;6.730;2022-10-23T07:16:11;12.50;99.90
13665;DHT22;6905;50.770;6.730;2022-10-23T07:21:49;12.50;99.90
13665;DHT22;6905;50.770;6.730;2022-10-23T07:24:18;12.60;99.90
13665;DHT22;6905;50.770;6.730;2022-10-23T07:26:44;12.60;99.90
13665;DHT22;6905;50.770;6.730;2022-10-23T07:29:11;12.70;99.90
13665;DHT22;6905;50.770;6.730;2022-10-23T07:31:39;12.70;99.90
13665;DHT22;6905;50.770;6.730;2022-10-23T07:34:06;12.70;99.90
13665;DHT22;6905;50.770;6.730;2022-10-23T07:36:33;12.80;99.90
13665;DHT22;6905;50.770;6.730;2022-10-23T07:39:00;12.80;99.90
13665;DHT22;6905;50.770;6.730;2022-10-23T07:41:28;12.80;99.90
13665;DHT22;6905;50.770;6.730;2022-10-23T07:43:55;12.90;99.90
13665;DHT22;6905;50.770;6.730;2022-10-23T07:46:22;12.90;99.90
13665;DHT22;6905;50.770;6.730;2022-10-23T07:48:49;13.00;99.90
13665;DHT22;6905;50.770;6.730;2022-10-23T07:51:17;13.10;99.90
13665;DHT22;6905;50.770;6.730;2022-10-23T07:53:44;13.10;99.90
13665;DHT22;6905;50.770;6.730;2022-10-23T07:56:13;13.20;99.90
13665;DHT22;6905;50.770;6.730;2022-10-23T07:58:42;13.30;99.90
13665;DHT22;6905;50.770;6.730;2022-10-23T08:01:14;13.40;99.90
13665;DHT22;6905;50.770;6.730;2022-10-23T08:04:07;13.50;99.90
13665;DHT22;6905;50.770;6.730;2022-10-23T08:06:35;13.60;99.90
13665;DHT22;6905;50.770;6.730;2022-10-23T08:09:02;13.70;99.90
13665;DHT22;6905;50.770;6.730;2022-10-23T08:17:36;13.90;99.90
13665;DHT22;6905;50.770;6.730;2022-10-23T08:20:05;14.00;99.90
13665;DHT22;6905;50.770;6.730;2022-10-23T08:22:34;14.10;99.90
13665;DHT22;6905;50.770;6.730;2022-10-23T08:25:03;14.10;99.90
13665;DHT22;6905;50.770;6.730;2022-10-23T08:30:49;14.20;99.90
13665;DHT22;6905;50.770;6.730;2022-10-23T08:33:20;14.30;99.90
13665;DHT22;6905;50.770;6.730;2022-10-23T08:35:49;14.40;99.90
13665;DHT22;6905;50.770;6.730;2022-10-23T08:38:18;14.40;99.90
13665;DHT22;6905;50.770;6.730;2022-10-23T08:40:46;14.60;99.90
13665;DHT22;6905;50.770;6.730;2022-10-23T08:43:16;14.70;99.90
13665;DHT22;6905;50.770;6.730;2022-10-23T08:45:50;14.80;99.90
13665;DHT22;6905;50.770;6.730;2022-10-23T08:51:26;15.10;99.90
13665;DHT22;6905;50.770;6.730;2022-10-23T08:53:57;15.20;99.90
13665;DHT22;6905;50.770;6.730;2022-10-23T08:56:36;15.40;99.90
13665;DHT22;6905;50.770;6.730;2022-10-23T08:59:11;15.50;99.90
13665;DHT22;6905;50.770;6.730;2022-10-23T09:01:45;15.70;99.90
13665;DHT22;6905;50.770;6.730;2022-10-23T09:04:17;15.70;99.90
13665;DHT22;6905;50.770;6.730;2022-10-23T09:12:30;15.90;99.90
13665;DHT22;6905;50.770;6.730;2022-10-23T09:15:17;15.90;99.90
13665;DHT22;6905;50.770;6.730;2022-10-23T09:17:53;15.90;99.90
13665;DHT22;6905;50.770;6.730;2022-10-23T09:20:27;16.00;99.90
13665;DHT22;6905;50.770;6.730;2022-10-23T09:22:59;16.00;99.90
13665;DHT22;6905;50.770;6.730;2022-10-23T09:25:28;16.10;99.90
13665;DHT22;6905;50.770;6.730;2022-10-23T09:28:00;16.20;99.90
13665;DHT22;6905;50.770;6.730;2022-10-23T09:39:00;16.80;99.90
13665;DHT22;6905;50.770;6.730;2022-10-23T09:41:33;16.90;99.90
13665;DHT22;6905;50.770;6.730;2022-10-23T09:44:14;16.90;99.90
13665;DHT22;6905;50.770;6.730;2022-10-23T09:46:45;16.90;99.90
13665;DHT22;6905;50.770;6.730;2022-10-23T09:49:19;17.00;99.90
13665;DHT22;6905;50.770;6.730;2022-10-23T09:54:43;17.00;99.90
13665;DHT22;6905;50.770;6.730;2022-10-23T09:57:18;17.10;99.90
13665;DHT22;6905;50.770;6.730;2022-10-23T10:00:14;17.10;99.90
13665;DHT22;6905;50.770;6.730;2022-10-23T10:02:53;17.10;99.90
13665;DHT22;6905;50.770;6.730;2022-10-23T10:05:33;17.20;99.90
13665;DHT22;6905;50.770;6.730;2022-10-23T10:08:03;17.20;99.90
13665;DHT22;6905;50.770;6.730;2022-10-23T10:10:38;17.20;99.90
13665;DHT22;6905;50.770;6.730;2022-10-23T10:13:36;17.20;99.90
13665;DHT22;6905;50.770;6.730;2022-10-23T10:16:18;17.20;99.90
13665;DHT22;6905;50.770;6.730;2022-10-23T10:18:53;17.20;99.90
13665;DHT22;6905;50.770;6.730;2022-10-23T10:21:29;17.20;99.90
13665;DHT22;6905;50.770;6.730;2022-10-23T10:24:04;17.20;99.90
13665;DHT22;6905;50.770;6.730;2022-10-23T10:26:33;17.20;99.90
13665;DHT22;6905;50.770;6.730;2022-10-23T10:29:14;17.20;99.90
13665;DHT22;6905;50.770;6.730;2022-10-23T10:31:56;17.20;99.90
13665;DHT22;6905;50.770;6.730;2022-10-23T10:34:28;17.20;99.90
13665;DHT22;6905;50.770;6.730;2022-10-23T10:37:00;17.10;99.90
13665;DHT22;6905;50.770;6.730;2022-10-23T10:39:34;17.10;99.90
13665;DHT22;6905;50.770;6.730;2022-10-23T10:42:13;17.00;99.90
13665;DHT22;6905;50.770;6.730;2022-10-23T10:47:58;16.90;99.90
13665;DHT22;6905;50.770;6.730;2022-10-23T10:50:35;16.90;99.90
13665;DHT22;6905;50.770;6.730;2022-10-23T10:53:13;16.90;99.90
13665;DHT22;6905;50.770;6.730;2022-10-23T10:55:50;16.90;99.90
13665;DHT22;6905;50.770;6.730;2022-10-23T10:58:23;16.90;99.90
13665;DHT22;6905;50.770;6.730;2022-10-23T11:00:55;16.90;99.90
13665;DHT22;6905;50.770;6.730;2022-10-23T11:03:29;16.80;99.90
13665;DHT22;6905;50.770;6.730;2022-10-23T11:06:01;16.80;99.90
13665;DHT22;6905;50.770;6.730;2022-10-23T11:08:40;16.70;99.90
13665;DHT22;6905;50.770;6.730;2022-10-23T11:11:18;16.70;99.90
13665;DHT22;6905;50.770;6.730;2022-10-23T11:13:48;16.70;99.90
13665;DHT22;6905;50.770;6.730;2022-10-23T11:16:18;16.70;99.90
13665;DHT22;6905;50.770;6.730;2022-10-23T11:18:51;16.80;99.90
13665;DHT22;6905;50.770;6.730;2022-10-23T11:21:25;16.90;99.90
13665;DHT22;6905;50.770;6.730;2022-10-23T11:24:08;17.00;99.90
13665;DHT22;6905;50.770;6.730;2022-10-23T11:29:47;17.20;99.90
13665;DHT22;6905;50.770;6.730;2022-10-23T11:32:28;17.30;99.90
13665;DHT22;6905;50.770;6.730;2022-10-23T11:38:22;17.50;99.90
13665;DHT22;6905;50.770;6.730;2022-10-23T11:43:56;17.60;99.90
13665;DHT22;6905;50.770;6.730;2022-10-23T11:46:28;17.80;99.90
13665;DHT22;6905;50.770;6.730;2022-10-23T11:49:03;17.80;99.90
13665;DHT22;6905;50.770;6.730;2022-10-23T11:51:45;17.90;99.90
13665;DHT22;6905;50.770;6.730;2022-10-23T11:54:26;18.00;99.90
13665;DHT22;6905;50.770;6.730;2022-10-23T11:57:09;18.10;99.90
13665;DHT22;6905;50.770;6.730;2022-10-23T11:59:41;18.20;99.90
13665;DHT22;6905;50.770;6.730;2022-10-23T12:02:28;18.20;99.90
13665;DHT22;6905;50.770;6.730;2022-10-23T12:05:24;18.30;99.90
13665;DHT22;6905;50.770;6.730;2022-10-23T12:07:59;18.30;99.90
13665;DHT22;6905;50.770;6.730;2022-10-23T12:10:47;18.40;99.90
13665;DHT22;6905;50.770;6.730;2022-10-23T12:16:41;18.60;99.90
13665;DHT22;6905;50.770;6.730;2022-10-23T12:19:24;18.60;99.90
13665;DHT22;6905;50.770;6.730;2022-10-23T12:22:14;18.60;99.90
13665;DHT22;6905;50.770;6.730;2022-10-23T12:25:01;18.60;99.90
13665;DHT22;6905;50.770;6.730;2022-10-23T14:09:46;20.20;99.90
13665;DHT22;6905;50.770;6.730;2022-10-23T14:15:51;20.20;99.90
13665;DHT22;6905;50.770;6.730;2022-10-23T14:21:50;20.10;99.90
13665;DHT22;6905;50.770;6.730;2022-10-23T14:43:14;19.80;99.90
13665;DHT22;6905;50.770;6.730;2022-10-23T14:52:44;19.70;99.90
13665;DHT22;6905;50.770;6.730;2022-10-23T14:55:38;19.70;99.90
